Time;durP1;ratioP1;P1;durP2;ratioP2;P2;SDS_P1;SDS_P2;PMS_P1;PMS_P2;Temp;Humidity;BMP_temperature;BMP_pressure;BME280_temperature;BME280_humidity;BME280_pressure;Samples;Min_cycle;Max_cycle;Signal;HPM_P1;HPM_P2
2023/03/20 00:01:59;;;;;;;5.80;3.05;;;;;;;;;;6342849;22;20426;-93
2023/03/20 00:04:25;;;;;;;6.10;3.10;;;;;;;;;;6319512;22;20008;-93
2023/03/20 00:06:51;;;;;;;5.85;3.40;;;;;;;;;;6319203;22;20295;-93
2023/03/20 00:09:17;;;;;;;9.43;3.40;;;;;;;;;;6345789;22;20315;-93
2023/03/20 00:11:48;;;;;;;9.88;4.18;;;;;;;;;;6320161;22;20454;-92
2023/03/20 00:14:15;;;;;;;8.95;3.78;;;;;;;;;;6344824;22;20006;-93
2023/03/20 00:16:42;;;;;;;7.18;3.22;;;;;;;;;;6319355;22;20029;-93
2023/03/20 00:19:19;;;;;;;7.93;4.78;;;;;;;;;;6345368;22;20006;-92
2023/03/20 00:21:46;;;;;;;12.65;3.65;;;;;;;;;;6345808;22;20026;-91
2023/03/20 00:24:13;;;;;;;7.13;3.85;;;;;;;;;;6345262;22;20033;-93
2023/03/20 00:26:39;;;;;;;9.55;3.97;;;;;;;;;;6345482;22;20014;-94
2023/03/20 00:29:07;;;;;;;9.68;3.67;;;;;;;;;;6319963;22;20459;-93
2023/03/20 00:31:35;;;;;;;8.50;3.78;;;;;;;;;;6346083;22;20022;-91
2023/03/20 00:34:05;;;;;;;7.88;3.80;;;;;;;;;;6346095;22;20014;-94
2023/03/20 00:36:32;;;;;;;12.77;3.17;;;;;;;;;;6345882;22;20022;-93
2023/03/20 00:38:58;;;;;;;8.90;3.72;;;;;;;;;;6345619;22;20033;-93
2023/03/20 00:41:25;;;;;;;16.52;4.82;;;;;;;;;;6321618;22;20203;-94
2023/03/20 00:43:55;;;;;;;5.82;3.25;;;;;;;;;;6373355;22;20017;-94
2023/03/20 00:46:21;;;;;;;10.07;3.95;;;;;;;;;;6345340;22;20006;-93
2023/03/20 00:48:48;;;;;;;9.38;3.47;;;;;;;;;;6318916;22;20010;-94
2023/03/20 00:51:16;;;;;;;10.18;3.88;;;;;;;;;;6346235;22;20017;-94
2023/03/20 00:53:43;;;;;;;11.20;3.60;;;;;;;;;;6320152;22;20078;-95
2023/03/20 00:56:24;;;;;;;7.20;3.47;;;;;;;;;;6320928;22;20034;-94
2023/03/20 00:58:51;;;;;;;8.35;3.72;;;;;;;;;;6346008;22;20007;-93
2023/03/20 01:01:17;;;;;;;4.93;3.33;;;;;;;;;;6321372;22;20440;-93
2023/03/20 01:03:45;;;;;;;16.00;3.47;;;;;;;;;;6320290;22;20471;-92
2023/03/20 01:06:12;;;;;;;9.52;3.65;;;;;;;;;;6345468;22;20032;-93
2023/03/20 01:08:39;;;;;;;13.18;3.70;;;;;;;;;;6345893;22;20006;-93
2023/03/20 01:11:06;;;;;;;12.80;3.88;;;;;;;;;;6346830;22;20002;-93
2023/03/20 01:13:32;;;;;;;9.05;3.78;;;;;;;;;;6346217;22;20010;-93
2023/03/20 01:16:23;;;;;;;13.13;4.05;;;;;;;;;;6346814;22;20153;-93
2023/03/20 01:18:49;;;;;;;10.07;3.85;;;;;;;;;;6346803;22;20002;-93
2023/03/20 01:21:19;;;;;;;17.45;3.85;;;;;;;;;;6322016;22;20039;-92
2023/03/20 01:23:45;;;;;;;8.80;3.25;;;;;;;;;;6346806;22;20450;-93
2023/03/20 01:26:22;;;;;;;11.20;4.57;;;;;;;;;;6346910;22;20093;-93
2023/03/20 01:28:48;;;;;;;10.90;3.60;;;;;;;;;;6347438;22;20397;-93
2023/03/20 01:31:15;;;;;;;6.50;3.72;;;;;;;;;;6347249;22;20022;-93
2023/03/20 01:33:43;;;;;;;7.60;3.85;;;;;;;;;;6321206;22;20006;-93
2023/03/20 01:36:14;;;;;;;11.43;3.53;;;;;;;;;;6321464;22;20022;-93
2023/03/20 01:38:40;;;;;;;11.45;3.90;;;;;;;;;;6320827;22;20017;-93
2023/03/20 01:41:10;;;;;;;10.15;3.45;;;;;;;;;;6321568;22;20385;-93
2023/03/20 01:43:51;;;;;;;11.48;3.90;;;;;;;;;;6345852;22;20002;-94
2023/03/20 01:46:30;;;;;;;8.73;3.28;;;;;;;;;;6346723;22;20352;-94
2023/03/20 01:48:59;;;;;;;9.75;4.35;;;;;;;;;;6347326;22;20010;-93
2023/03/20 01:51:36;;;;;;;9.10;4.43;;;;;;;;;;6347647;22;20006;-93
2023/03/20 01:54:09;;;;;;;14.98;3.88;;;;;;;;;;6345882;22;20006;-93
2023/03/20 01:56:40;;;;;;;16.00;4.13;;;;;;;;;;6346728;22;20432;-93
2023/03/20 01:59:19;;;;;;;10.38;3.67;;;;;;;;;;6347472;22;20006;-94
2023/03/20 02:01:47;;;;;;;9.52;4.63;;;;;;;;;;6347345;22;20080;-94
2023/03/20 02:04:15;;;;;;;16.77;4.45;;;;;;;;;;6321012;22;20006;-94
2023/03/20 02:06:44;;;;;;;13.40;4.63;;;;;;;;;;6374138;22;20474;-93
2023/03/20 02:09:10;;;;;;;11.15;4.22;;;;;;;;;;6346499;22;20005;-93
2023/03/20 02:11:41;;;;;;;12.18;5.57;;;;;;;;;;6320049;22;20010;-94
2023/03/20 02:14:11;;;;;;;19.55;5.43;;;;;;;;;;6373919;22;20006;-94
2023/03/20 02:16:37;;;;;;;13.93;5.22;;;;;;;;;;6346318;22;20014;-93
2023/03/20 02:19:05;;;;;;;11.88;3.75;;;;;;;;;;6319981;22;20007;-93
2023/03/20 02:21:49;;;;;;;12.85;5.50;;;;;;;;;;6345437;22;20036;-93
2023/03/20 02:24:33;;;;;;;11.52;4.53;;;;;;;;;;6345805;22;20049;-93
2023/03/20 02:27:38;;;;;;;15.35;5.68;;;;;;;;;;6346297;22;20054;-92
2023/03/20 02:30:23;;;;;;;12.18;4.55;;;;;;;;;;6189985;22;20031;-93
2023/03/20 02:32:58;;;;;;;16.13;5.28;;;;;;;;;;6307694;22;20022;-92
2023/03/20 02:35:36;;;;;;;10.60;5.00;;;;;;;;;;6315871;22;20003;-93
2023/03/20 02:38:11;;;;;;;19.10;5.45;;;;;;;;;;6315582;22;20244;-93
2023/03/20 02:40:37;;;;;;;15.95;5.68;;;;;;;;;;6315908;22;20085;-92
2023/03/20 02:43:03;;;;;;;14.80;5.72;;;;;;;;;;6315584;22;20452;-93
2023/03/20 02:45:44;;;;;;;14.88;4.88;;;;;;;;;;6317143;22;20034;-93
2023/03/20 02:48:20;;;;;;;26.65;6.22;;;;;;;;;;6319499;22;20102;-92
2023/03/20 02:51:05;;;;;;;14.38;5.50;;;;;;;;;;6322392;22;20011;-93
2023/03/20 02:53:40;;;;;;;24.15;6.65;;;;;;;;;;6326113;22;20022;-93
2023/03/20 02:56:32;;;;;;;22.93;6.07;;;;;;;;;;6324034;22;20471;-93
2023/03/20 02:59:06;;;;;;;15.40;5.97;;;;;;;;;;6320097;22;20003;-93
2023/03/20 03:01:36;;;;;;;11.57;5.03;;;;;;;;;;6330848;22;20018;-94
2023/03/20 03:04:17;;;;;;;23.13;6.05;;;;;;;;;;6331723;22;19990;-94
2023/03/20 03:06:46;;;;;;;22.38;6.63;;;;;;;;;;6332072;22;20010;-94
2023/03/20 03:09:13;;;;;;;19.95;6.20;;;;;;;;;;6332831;22;20275;-94
2023/03/20 03:11:45;;;;;;;11.32;4.88;;;;;;;;;;6331436;22;20016;-92
2023/03/20 03:14:15;;;;;;;10.32;5.00;;;;;;;;;;6332166;22;20084;-92
2023/03/20 03:16:42;;;;;;;18.92;5.93;;;;;;;;;;6331989;22;20002;-93
2023/03/20 03:19:11;;;;;;;24.23;6.63;;;;;;;;;;6318335;22;20034;-93
2023/03/20 03:21:38;;;;;;;14.57;5.88;;;;;;;;;;6316761;22;20073;-92
2023/03/20 03:24:05;;;;;;;11.00;4.82;;;;;;;;;;6314323;22;20007;-93
2023/03/20 03:26:36;;;;;;;16.55;5.97;;;;;;;;;;6287460;22;20091;-93
2023/03/20 03:29:09;;;;;;;18.52;5.32;;;;;;;;;;6313930;22;20007;-93
2023/03/20 03:31:45;;;;;;;12.35;4.25;;;;;;;;;;6364010;22;20413;-93
2023/03/20 03:34:13;;;;;;;20.92;6.75;;;;;;;;;;6320317;22;20014;-92
2023/03/20 03:36:40;;;;;;;22.55;6.88;;;;;;;;;;6345357;22;20117;-93
2023/03/20 03:39:15;;;;;;;22.95;6.82;;;;;;;;;;6345893;22;20022;-93
2023/03/20 03:41:48;;;;;;;19.27;6.80;;;;;;;;;;6348089;22;20009;-93
2023/03/20 03:44:23;;;;;;;22.10;6.68;;;;;;;;;;6320443;22;20070;-93
2023/03/20 03:46:52;;;;;;;19.42;5.68;;;;;;;;;;6321134;22;20010;-93
2023/03/20 03:49:27;;;;;;;20.30;6.55;;;;;;;;;;6347113;22;20010;-94
2023/03/20 03:51:56;;;;;;;22.02;7.40;;;;;;;;;;6346180;22;20085;-94
2023/03/20 03:54:40;;;;;;;19.13;6.50;;;;;;;;;;6373339;22;20037;-93
2023/03/20 03:57:07;;;;;;;18.30;6.50;;;;;;;;;;6347748;22;20006;-91
2023/03/20 03:59:35;;;;;;;16.52;6.72;;;;;;;;;;6347496;22;20009;-93
2023/03/20 04:02:10;;;;;;;15.15;6.25;;;;;;;;;;6348846;22;19998;-93
2023/03/20 04:04:38;;;;;;;12.25;5.80;;;;;;;;;;6348036;22;20006;-93
2023/03/20 04:07:13;;;;;;;16.95;6.90;;;;;;;;;;6347634;22;20006;-93
2023/03/20 04:09:40;;;;;;;22.98;6.55;;;;;;;;;;6322349;22;20031;-94
2023/03/20 04:12:06;;;;;;;17.00;6.55;;;;;;;;;;6322869;22;20022;-94
2023/03/20 04:14:32;;;;;;;11.93;6.07;;;;;;;;;;6322558;22;20010;-94
2023/03/20 04:17:02;;;;;;;28.20;7.63;;;;;;;;;;6377977;22;20006;-94
2023/03/20 04:19:28;;;;;;;22.67;7.70;;;;;;;;;;6323148;22;20002;-93
2023/03/20 04:21:54;;;;;;;17.42;6.50;;;;;;;;;;6322711;22;20003;-93
2023/03/20 04:24:21;;;;;;;12.57;6.30;;;;;;;;;;6322211;22;20014;-93
2023/03/20 04:26:48;;;;;;;27.20;6.93;;;;;;;;;;6322797;22;20094;-93
2023/03/20 04:29:14;;;;;;;21.20;6.53;;;;;;;;;;6321671;22;20056;-93
2023/03/20 04:31:41;;;;;;;22.77;6.07;;;;;;;;;;6321950;22;20015;-93
2023/03/20 04:34:10;;;;;;;19.35;7.35;;;;;;;;;;6323177;22;20029;-93
2023/03/20 04:36:36;;;;;;;14.18;5.90;;;;;;;;;;6322177;22;20011;-92
2023/03/20 04:39:03;;;;;;;9.23;4.50;;;;;;;;;;6320513;22;20007;-94
2023/03/20 04:41:29;;;;;;;21.58;7.43;;;;;;;;;;6321876;22;20009;-94
2023/03/20 04:43:55;;;;;;;22.25;7.03;;;;;;;;;;6319902;22;20006;-93
2023/03/20 04:46:30;;;;;;;12.00;4.50;;;;;;;;;;6321541;22;20427;-93
2023/03/20 04:48:57;;;;;;;23.15;7.18;;;;;;;;;;6321170;22;20034;-93
2023/03/20 04:51:23;;;;;;;9.88;4.82;;;;;;;;;;6347956;22;20077;-93
2023/03/20 04:53:50;;;;;;;24.45;6.70;;;;;;;;;;6321210;22;20007;-93
2023/03/20 04:56:17;;;;;;;19.60;6.85;;;;;;;;;;6347474;22;20006;-92
2023/03/20 04:58:43;;;;;;;17.75;7.30;;;;;;;;;;6346347;22;19998;-93
2023/03/20 05:01:09;;;;;;;20.73;7.07;;;;;;;;;;6320781;22;20011;-93
2023/03/20 05:03:35;;;;;;;16.40;6.20;;;;;;;;;;6322229;22;20014;-93
2023/03/20 05:06:05;;;;;;;16.20;7.63;;;;;;;;;;6321898;22;20010;-92
2023/03/20 05:08:33;;;;;;;20.45;7.15;;;;;;;;;;6321893;22;20010;-93
2023/03/20 05:11:04;;;;;;;31.17;7.28;;;;;;;;;;6349263;22;20010;-92
2023/03/20 05:13:30;;;;;;;12.23;5.05;;;;;;;;;;6322872;22;20017;-93
2023/03/20 05:16:00;;;;;;;18.60;7.45;;;;;;;;;;6321695;22;20015;-92
2023/03/20 05:18:26;;;;;;;21.50;6.53;;;;;;;;;;6321863;22;20011;-93
2023/03/20 05:20:56;;;;;;;12.35;5.82;;;;;;;;;;6348482;22;20116;-93
2023/03/20 05:23:25;;;;;;;16.40;6.97;;;;;;;;;;6322314;22;20016;-92
2023/03/20 05:25:53;;;;;;;22.05;7.10;;;;;;;;;;6323088;22;20448;-93
2023/03/20 05:28:19;;;;;;;19.05;7.50;;;;;;;;;;6322850;22;20011;-92
2023/03/20 05:30:45;;;;;;;23.30;6.70;;;;;;;;;;6323007;22;20198;-92
2023/03/20 05:33:12;;;;;;;14.43;6.55;;;;;;;;;;6347002;22;20497;-93
2023/03/20 05:35:41;;;;;;;13.50;6.03;;;;;;;;;;6321483;22;20016;-93
2023/03/20 05:38:08;;;;;;;14.73;5.90;;;;;;;;;;6348958;22;20003;-93
2023/03/20 05:40:34;;;;;;;10.80;5.15;;;;;;;;;;6323483;22;20006;-93
2023/03/20 05:43:00;;;;;;;12.30;6.53;;;;;;;;;;6321416;22;20257;-93
2023/03/20 05:45:27;;;;;;;15.60;6.10;;;;;;;;;;6320619;22;20374;-93
2023/03/20 05:47:54;;;;;;;13.38;5.25;;;;;;;;;;6348393;22;20036;-93
2023/03/20 05:50:20;;;;;;;15.35;4.72;;;;;;;;;;6347692;22;20010;-93
2023/03/20 05:52:47;;;;;;;18.58;5.97;;;;;;;;;;6322291;22;20006;-94
2023/03/20 05:55:26;;;;;;;17.98;6.75;;;;;;;;;;6322052;22;20010;-92
2023/03/20 05:57:55;;;;;;;17.95;6.22;;;;;;;;;;6351935;22;20318;-92
2023/03/20 06:00:25;;;;;;;16.70;6.47;;;;;;;;;;6323516;22;20017;-93
2023/03/20 06:02:51;;;;;;;15.30;7.05;;;;;;;;;;6324154;22;20446;-93
2023/03/20 06:05:18;;;;;;;13.13;4.45;;;;;;;;;;6324597;22;20013;-93
2023/03/20 06:07:46;;;;;;;18.75;4.72;;;;;;;;;;6350587;22;20003;-93
2023/03/20 06:10:13;;;;;;;18.70;7.68;;;;;;;;;;6348016;22;20340;-92
2023/03/20 06:12:39;;;;;;;20.25;6.38;;;;;;;;;;6348772;22;20089;-93
2023/03/20 06:15:09;;;;;;;10.07;3.45;;;;;;;;;;6323279;22;20340;-93
2023/03/20 06:17:37;;;;;;;18.67;7.07;;;;;;;;;;6323526;22;20093;-92
2023/03/20 06:20:05;;;;;;;20.58;7.50;;;;;;;;;;6324319;22;20057;-93
2023/03/20 06:22:35;;;;;;;19.83;7.15;;;;;;;;;;6322469;22;20460;-93
2023/03/20 06:25:02;;;;;;;19.73;7.05;;;;;;;;;;6323870;22;20006;-93
2023/03/20 06:27:29;;;;;;;15.52;7.05;;;;;;;;;;6347679;22;20009;-93
2023/03/20 06:29:56;;;;;;;12.32;5.75;;;;;;;;;;6321400;22;20011;-91
2023/03/20 06:32:22;;;;;;;11.48;5.80;;;;;;;;;;6348302;22;20014;-93
2023/03/20 06:34:48;;;;;;;19.95;7.85;;;;;;;;;;6348316;22;20022;-93
2023/03/20 06:37:19;;;;;;;23.45;7.45;;;;;;;;;;6323338;22;20002;-92
2023/03/20 06:39:45;;;;;;;16.50;6.80;;;;;;;;;;6348523;22;20021;-92
2023/03/20 06:42:11;;;;;;;14.60;5.28;;;;;;;;;;6327680;22;20322;-91
2023/03/20 06:44:44;;;;;;;18.17;6.90;;;;;;;;;;6329147;22;20005;-91
2023/03/20 06:47:10;;;;;;;18.45;7.78;;;;;;;;;;6351075;22;20017;-92
2023/03/20 06:49:36;;;;;;;24.73;7.65;;;;;;;;;;6325648;22;20109;-92
2023/03/20 06:52:05;;;;;;;16.73;7.82;;;;;;;;;;6330744;22;20028;-92
2023/03/20 06:54:31;;;;;;;18.80;7.85;;;;;;;;;;6362518;22;20012;-94
2023/03/20 06:56:57;;;;;;;24.40;7.20;;;;;;;;;;6365724;22;20010;-93
2023/03/20 06:59:25;;;;;;;17.85;7.00;;;;;;;;;;6364151;22;20018;-93
2023/03/20 07:01:51;;;;;;;10.18;4.47;;;;;;;;;;6332504;22;20135;-94
2023/03/20 07:04:17;;;;;;;15.57;7.53;;;;;;;;;;6329330;22;20226;-94
2023/03/20 07:06:43;;;;;;;16.45;6.30;;;;;;;;;;6330320;22;20010;-93
2023/03/20 07:09:09;;;;;;;14.57;5.80;;;;;;;;;;6340702;22;19994;-94
2023/03/20 07:11:37;;;;;;;23.42;7.65;;;;;;;;;;6366880;22;20032;-94
2023/03/20 07:14:09;;;;;;;20.23;7.00;;;;;;;;;;6338790;22;19987;-93
2023/03/20 07:16:35;;;;;;;21.92;6.18;;;;;;;;;;6339112;22;20010;-92
2023/03/20 07:19:03;;;;;;;13.20;6.30;;;;;;;;;;6390604;22;20069;-94
2023/03/20 07:21:30;;;;;;;16.40;7.40;;;;;;;;;;6325915;22;20027;-93
2023/03/20 07:23:56;;;;;;;20.92;7.45;;;;;;;;;;6324210;22;20006;-93
2023/03/20 07:26:23;;;;;;;19.52;7.55;;;;;;;;;;6348600;22;20014;-94
2023/03/20 07:29:10;;;;;;;20.40;7.63;;;;;;;;;;6356521;22;20036;-93
2023/03/20 07:31:59;;;;;;;20.00;6.93;;;;;;;;;;6345922;22;20011;-94
2023/03/20 07:34:45;;;;;;;15.02;7.13;;;;;;;;;;6349559;22;20010;-93
2023/03/20 07:37:12;;;;;;;23.25;7.50;;;;;;;;;;6346728;22;20018;-92
2023/03/20 07:39:41;;;;;;;17.33;6.70;;;;;;;;;;6319804;22;20253;-92
2023/03/20 07:42:07;;;;;;;25.00;6.85;;;;;;;;;;6320858;22;20014;-93
2023/03/20 07:44:37;;;;;;;20.10;7.63;;;;;;;;;;6320582;22;20014;-93
2023/03/20 07:47:07;;;;;;;23.25;8.15;;;;;;;;;;6322401;22;20035;-92
2023/03/20 07:49:33;;;;;;;18.00;7.53;;;;;;;;;;6325890;22;20436;-93
2023/03/20 07:52:00;;;;;;;14.05;6.75;;;;;;;;;;6352897;22;20003;-94
2023/03/20 07:54:26;;;;;;;18.30;7.88;;;;;;;;;;6324147;22;20003;-94
2023/03/20 07:56:54;;;;;;;17.83;7.07;;;;;;;;;;6324364;22;20014;-92
2023/03/20 07:59:20;;;;;;;20.17;8.68;;;;;;;;;;6321052;22;20127;-94
2023/03/20 08:01:46;;;;;;;27.13;7.72;;;;;;;;;;6322315;22;20002;-92
2023/03/20 08:04:13;;;;;;;18.23;8.35;;;;;;;;;;6321127;22;20098;-93
2023/03/20 08:06:39;;;;;;;18.40;7.68;;;;;;;;;;6319474;22;20071;-93
2023/03/20 08:09:08;;;;;;;23.92;8.32;;;;;;;;;;6321729;22;20010;-93
2023/03/20 08:11:35;;;;;;;16.33;7.45;;;;;;;;;;6347805;22;20002;-93
2023/03/20 08:14:05;;;;;;;12.77;5.38;;;;;;;;;;6320648;22;20503;-93
2023/03/20 08:16:34;;;;;;;26.17;8.30;;;;;;;;;;6345889;22;20348;-93
2023/03/20 08:19:03;;;;;;;30.73;8.38;;;;;;;;;;6328625;22;20040;-93
2023/03/20 08:21:33;;;;;;;21.55;8.57;;;;;;;;;;6327044;22;20032;-94
2023/03/20 08:24:20;;;;;;;10.50;4.63;;;;;;;;;;6332354;22;20007;-92
2023/03/20 08:26:46;;;;;;;19.90;7.57;;;;;;;;;;6357687;22;20007;-93
2023/03/20 08:29:34;;;;;;;16.88;7.55;;;;;;;;;;6328294;22;20006;-94
2023/03/20 08:32:02;;;;;;;19.17;8.70;;;;;;;;;;6356549;22;20257;-93
2023/03/20 08:34:28;;;;;;;28.38;9.77;;;;;;;;;;6334226;22;20014;-92
2023/03/20 08:36:55;;;;;;;17.15;8.38;;;;;;;;;;6332031;22;20030;-93
2023/03/20 08:39:34;;;;;;;20.95;6.65;;;;;;;;;;6333190;22;20068;-93
2023/03/20 08:42:07;;;;;;;19.98;6.93;;;;;;;;;;6359214;22;20002;-93
2023/03/20 08:44:47;;;;;;;29.23;8.88;;;;;;;;;;6332528;22;20010;-93
2023/03/20 08:47:15;;;;;;;23.73;8.60;;;;;;;;;;6333149;22;20021;-94
2023/03/20 08:49:53;;;;;;;22.80;7.53;;;;;;;;;;6350131;22;20102;-93
2023/03/20 08:52:23;;;;;;;18.25;8.25;;;;;;;;;;6335742;22;20343;-94
2023/03/20 08:58:11;;;;;;;26.98;8.68;;;;;;;;;;6292805;22;20031;-93
2023/03/20 09:07:21;;;;;;;26.25;8.00;;;;;;;;;;6294429;22;20015;-94
2023/03/20 09:10:08;;;;;;;13.10;6.43;;;;;;;;;;6147166;23;20006;-92
2023/03/20 09:15:38;;;;;;;24.00;9.00;;;;;;;;;;6141904;23;20125;-93
2023/03/20 09:18:06;;;;;;;23.80;8.32;;;;;;;;;;6171294;23;20041;-94
2023/03/20 09:20:40;;;;;;;19.80;8.73;;;;;;;;;;6122221;23;20005;-94
2023/03/20 09:23:10;;;;;;;17.85;7.88;;;;;;;;;;6114494;23;20025;-93
2023/03/20 09:28:22;;;;;;;;;;;;;;;;;;6200180;23;20012;-94
2023/03/20 09:33:50;;;;;;;15.98;7.13;;;;;;;;;;6293840;22;20021;-94
2023/03/20 09:36:19;;;;;;;17.40;7.93;;;;;;;;;;6322761;22;20034;-93
2023/03/20 09:42:29;;;;;;;20.45;7.47;;;;;;;;;;6341945;22;20002;-92
2023/03/20 09:48:16;;;;;;;13.32;5.50;;;;;;;;;;6264717;23;19999;-94
2023/03/20 09:51:04;;;;;;;15.93;4.25;;;;;;;;;;6237510;23;20008;-93
2023/03/20 09:53:39;;;;;;;29.67;10.55;;;;;;;;;;6323144;22;20010;-93
2023/03/20 09:56:14;;;;;;;17.52;6.15;;;;;;;;;;6321123;22;20007;-93
2023/03/20 09:59:22;;;;;;;23.80;7.72;;;;;;;;;;6321848;22;20341;-95
2023/03/20 10:01:55;;;;;;;18.20;7.65;;;;;;;;;;6346647;22;20010;-93
2023/03/20 10:04:26;;;;;;;19.25;7.70;;;;;;;;;;6319851;22;20009;-94
2023/03/20 10:07:17;;;;;;;21.98;7.10;;;;;;;;;;6323667;22;20433;-95
2023/03/20 10:09:44;;;;;;;13.75;6.22;;;;;;;;;;6322802;22;20080;-94
2023/03/20 10:15:14;;;;;;;16.60;6.15;;;;;;;;;;6355965;22;20356;-92
2023/03/20 10:18:10;;;;;;;13.10;5.50;;;;;;;;;;6324329;22;20428;-94
2023/03/20 10:20:42;;;;;;;19.60;7.20;;;;;;;;;;6292212;22;20007;-95
2023/03/20 10:23:26;;;;;;;22.80;6.68;;;;;;;;;;6324683;22;20647;-94
2023/03/20 10:26:10;;;;;;;24.95;8.40;;;;;;;;;;6324366;22;20011;-93
2023/03/20 10:28:56;;;;;;;22.98;8.38;;;;;;;;;;6320993;22;20014;-93
2023/03/20 10:31:31;;;;;;;16.45;6.65;;;;;;;;;;6321304;22;20059;-94
2023/03/20 10:34:25;;;;;;;20.77;6.95;;;;;;;;;;6347171;22;20066;-94
2023/03/20 10:37:27;;;;;;;;;;;;;;;;;;;;;
2023/03/20 10:40:22;;;;;;;19.20;7.07;;;;;;;;;;6388250;22;19999;-93
2023/03/20 10:43:02;;;;;;;18.95;6.57;;;;;;;;;;6360036;22;20006;-93
2023/03/20 10:45:53;;;;;;;14.57;6.97;;;;;;;;;;6359839;22;20011;-93
2023/03/20 10:49:24;;;;;;;;;;;;;;;;;;;;;
2023/03/20 10:51:47;;;;;;;12.10;7.53;;;;;;;;;;6331277;22;20014;-93
2023/03/20 10:55:26;;;;;;;12.88;5.95;;;;;;;;;;6353435;22;20010;-93
2023/03/20 10:57:30;;;;;;;20.05;7.60;;;;;;;;;;6329530;22;20021;-94
2023/03/20 11:00:09;;;;;;;11.63;6.47;;;;;;;;;;6354501;22;20002;-95
2023/03/20 11:02:37;;;;;;;45.13;7.90;;;;;;;;;;6353132;22;20006;-94
2023/03/20 11:05:26;;;;;;;21.92;7.45;;;;;;;;;;6331154;22;20030;-94
2023/03/20 11:08:19;;;;;;;20.92;7.32;;;;;;;;;;6343987;22;20035;-92
2023/03/20 11:14:07;;;;;;;19.20;6.47;;;;;;;;;;6328880;22;20041;-92
2023/03/20 11:16:39;;;;;;;12.57;5.78;;;;;;;;;;6291732;22;20025;-92
2023/03/20 11:22:33;;;;;;;18.33;6.63;;;;;;;;;;6390487;22;20453;-93
2023/03/20 11:25:02;;;;;;;16.13;6.82;;;;;;;;;;6356068;22;20014;-93
2023/03/20 11:27:32;;;;;;;16.90;5.90;;;;;;;;;;6332262;22;20010;-92
2023/03/20 11:30:00;;;;;;;28.58;7.65;;;;;;;;;;6348066;22;20094;-94
2023/03/20 11:35:41;;;;;;;20.27;5.65;;;;;;;;;;6317214;22;20348;-94
2023/03/20 11:38:18;;;;;;;16.67;6.47;;;;;;;;;;6327501;22;20010;-94
2023/03/20 11:40:54;;;;;;;15.73;5.70;;;;;;;;;;6317854;22;20060;-94
2023/03/20 11:43:26;;;;;;;16.38;5.38;;;;;;;;;;6314489;22;20003;-94
2023/03/20 11:46:03;;;;;;;15.13;4.13;;;;;;;;;;6314967;22;20011;-94
2023/03/20 11:48:45;;;;;;;16.23;4.15;;;;;;;;;;6291152;22;20006;-95
2023/03/20 11:51:50;;;;;;;18.38;6.15;;;;;;;;;;6330876;22;20019;-94
2023/03/20 11:54:25;;;;;;;12.55;5.78;;;;;;;;;;6205075;23;20335;-93
2023/03/20 11:56:59;;;;;;;20.63;5.73;;;;;;;;;;6310644;22;20018;-92
2023/03/20 11:59:57;;;;;;;17.48;6.05;;;;;;;;;;6321467;22;20002;-93
2023/03/20 12:02:25;;;;;;;17.13;5.82;;;;;;;;;;6278492;22;20005;-93
2023/03/20 12:04:52;;;;;;;14.65;5.47;;;;;;;;;;6317356;22;20432;-93
2023/03/20 12:07:40;;;;;;;15.10;6.43;;;;;;;;;;6343032;22;20011;-93
2023/03/20 12:13:03;;;;;;;18.17;6.00;;;;;;;;;;6221441;23;20095;-94
2023/03/20 12:15:33;;;;;;;18.73;4.75;;;;;;;;;;6317221;22;20063;-92
2023/03/20 12:18:18;;;;;;;14.55;4.68;;;;;;;;;;6293267;22;20060;-93
2023/03/20 12:21:06;;;;;;;16.90;4.57;;;;;;;;;;6326719;22;20272;-94
2023/03/20 12:23:42;;;;;;;8.50;4.10;;;;;;;;;;6328555;22;20235;-93
2023/03/20 12:26:08;;;;;;;;;;;;;;;;;;6317154;22;20440;-93
2023/03/20 12:28:43;;;;;;;10.10;3.95;;;;;;;;;;6320938;22;19898;-94
2023/03/20 12:31:42;;;;;;;14.23;4.47;;;;;;;;;;6326297;22;20014;-92
2023/03/20 12:35:19;;;;;;;10.43;3.63;;;;;;;;;;6353053;22;20440;-92
2023/03/20 12:37:50;;;;;;;9.80;3.53;;;;;;;;;;6373298;22;20022;-93
2023/03/20 12:43:39;;;;;;;8.20;2.17;;;;;;;;;;6329241;22;20067;-95
2023/03/20 12:46:17;;;;;;;7.43;2.50;;;;;;;;;;6348078;22;20046;-93
2023/03/20 12:48:46;;;;;;;7.82;4.00;;;;;;;;;;6354596;22;20022;-93
2023/03/20 12:51:24;;;;;;;8.07;3.03;;;;;;;;;;6352515;22;20024;-93
2023/03/20 12:54:13;;;;;;;5.90;3.38;;;;;;;;;;6376252;22;20003;-92
2023/03/20 12:56:56;;;;;;;9.25;3.17;;;;;;;;;;6351672;22;20085;-93
2023/03/20 12:59:41;;;;;;;5.43;1.95;;;;;;;;;;6348009;22;20101;-93
2023/03/20 13:02:17;;;;;;;12.60;2.78;;;;;;;;;;6349281;22;20048;-94
2023/03/20 13:04:54;;;;;;;12.00;2.55;;;;;;;;;;6348652;22;20614;-94
2023/03/20 13:07:31;;;;;;;7.22;3.20;;;;;;;;;;6347939;22;20006;-93
2023/03/20 13:10:02;;;;;;;12.07;3.75;;;;;;;;;;6324428;22;20091;-93
2023/03/20 13:12:58;;;;;;;;;;;;;;;;;;;;;
2023/03/20 13:15:58;;;;;;;9.85;3.85;;;;;;;;;;6375586;22;20030;-93
2023/03/20 13:18:39;;;;;;;7.70;2.78;;;;;;;;;;6358686;22;20031;-92
2023/03/20 13:21:13;;;;;;;13.27;3.65;;;;;;;;;;6348674;22;19999;-93
2023/03/20 13:23:49;;;;;;;9.73;3.85;;;;;;;;;;6352129;22;20538;-92
2023/03/20 13:26:39;;;;;;;10.98;3.55;;;;;;;;;;6325194;22;20321;-94
2023/03/20 13:29:39;;;;;;;;;;;;;;;;;;;;;
2023/03/20 13:32:16;;;;;;;15.73;5.03;;;;;;;;;;6382636;22;20010;-92
2023/03/20 13:34:50;;;;;;;13.43;4.55;;;;;;;;;;6352457;22;20014;-92
2023/03/20 13:37:19;;;;;;;10.93;4.18;;;;;;;;;;6347513;22;20006;-92
2023/03/20 13:40:13;;;;;;;14.35;5.30;;;;;;;;;;6354289;22;20004;-91
2023/03/20 13:43:05;;;;;;;6.00;3.15;;;;;;;;;;6356318;22;20062;-91
2023/03/20 13:45:39;;;;;;;7.50;3.05;;;;;;;;;;6355001;22;20036;-93
2023/03/20 13:48:15;;;;;;;8.40;2.35;;;;;;;;;;6348135;22;20033;-93
2023/03/20 13:50:44;;;;;;;9.23;3.55;;;;;;;;;;6347503;22;19999;-91
2023/03/20 13:53:33;;;;;;;11.77;4.78;;;;;;;;;;6349226;22;20018;-92
2023/03/20 13:56:05;;;;;;;7.53;4.38;;;;;;;;;;6348757;22;20052;-93
2023/03/20 13:58:31;;;;;;;4.68;2.83;;;;;;;;;;6348616;22;20073;-92
2023/03/20 14:00:59;;;;;;;7.35;3.47;;;;;;;;;;6347797;22;20005;-92
2023/03/20 14:03:44;;;;;;;13.02;5.30;;;;;;;;;;6348043;22;20006;-91
2023/03/20 14:06:22;;;;;;;8.73;4.47;;;;;;;;;;6347494;22;20503;-92
2023/03/20 14:08:52;;;;;;;10.75;5.13;;;;;;;;;;6351184;22;20024;-93
2023/03/20 14:11:42;;;;;;;5.25;3.15;;;;;;;;;;6352557;22;20028;-92
2023/03/20 14:14:12;;;;;;;11.55;4.93;;;;;;;;;;6376454;22;20085;-92
2023/03/20 14:16:38;;;;;;;11.85;4.68;;;;;;;;;;6347431;22;20010;-90
2023/03/20 14:19:14;;;;;;;8.45;2.78;;;;;;;;;;6346627;22;20003;-90
2023/03/20 14:21:44;;;;;;;12.60;4.50;;;;;;;;;;6345974;22;20002;-91
2023/03/20 14:24:16;;;;;;;9.88;4.93;;;;;;;;;;6345123;22;20006;-91
2023/03/20 14:26:42;;;;;;;9.63;5.38;;;;;;;;;;6345267;22;20062;-90
2023/03/20 14:29:08;;;;;;;4.63;2.67;;;;;;;;;;6345664;22;20433;-91
2023/03/20 14:31:40;;;;;;;11.40;4.45;;;;;;;;;;6344595;22;20006;-92
2023/03/20 14:34:19;;;;;;;6.13;4.38;;;;;;;;;;6370213;22;20324;-91
2023/03/20 14:36:52;;;;;;;5.50;2.85;;;;;;;;;;6346205;22;20026;-92
2023/03/20 14:39:37;;;;;;;10.45;4.75;;;;;;;;;;6346513;22;20035;-91
2023/03/20 14:42:22;;;;;;;9.50;5.40;;;;;;;;;;6346134;22;20006;-92
2023/03/20 14:44:48;;;;;;;15.40;3.17;;;;;;;;;;6344845;22;20002;-92
2023/03/20 14:47:33;;;;;;;6.95;3.58;;;;;;;;;;6345270;22;20014;-92
2023/03/20 14:50:18;;;;;;;10.82;5.55;;;;;;;;;;6345270;22;20083;-92
2023/03/20 14:52:45;;;;;;;7.35;5.30;;;;;;;;;;6345443;22;20147;-92
2023/03/20 14:55:14;;;;;;;13.18;6.30;;;;;;;;;;6346163;22;20089;-92
2023/03/20 14:57:53;;;;;;;11.50;6.93;;;;;;;;;;6346868;22;20002;-92
2023/03/20 15:00:21;;;;;;;11.82;6.35;;;;;;;;;;6319421;22;20085;-92
2023/03/20 15:02:49;;;;;;;15.55;7.07;;;;;;;;;;6346233;22;20052;-92
2023/03/20 15:05:27;;;;;;;10.40;6.43;;;;;;;;;;6346403;22;20347;-92
2023/03/20 15:07:56;;;;;;;14.05;7.10;;;;;;;;;;6347375;22;19998;-92
2023/03/20 15:10:23;;;;;;;9.50;5.80;;;;;;;;;;6349331;22;20396;-93
2023/03/20 15:12:49;;;;;;;6.82;3.75;;;;;;;;;;6351970;22;19998;-91
2023/03/20 15:15:26;;;;;;;13.60;7.13;;;;;;;;;;6336870;22;20021;-92
2023/03/20 15:17:52;;;;;;;19.13;8.52;;;;;;;;;;6363707;22;20044;-91
2023/03/20 15:20:19;;;;;;;21.45;9.02;;;;;;;;;;6350248;22;19998;-90
2023/03/20 15:22:52;;;;;;;10.10;5.90;;;;;;;;;;6355808;22;20006;-91
2023/03/20 15:25:19;;;;;;;10.60;6.40;;;;;;;;;;6348758;22;20009;-93
2023/03/20 15:27:46;;;;;;;14.98;8.32;;;;;;;;;;6347805;22;20030;-92
2023/03/20 15:30:14;;;;;;;18.38;9.13;;;;;;;;;;6347220;22;20075;-92
2023/03/20 15:32:44;;;;;;;15.50;8.00;;;;;;;;;;6346470;22;20435;-93
2023/03/20 15:35:22;;;;;;;16.60;8.77;;;;;;;;;;6345381;22;20018;-93
2023/03/20 15:37:49;;;;;;;17.25;8.90;;;;;;;;;;6346229;22;20018;-93
2023/03/20 15:40:21;;;;;;;11.00;6.97;;;;;;;;;;6344213;22;20018;-93
2023/03/20 15:42:57;;;;;;;18.38;8.82;;;;;;;;;;6343917;22;20006;-93
2023/03/20 15:45:34;;;;;;;18.17;7.88;;;;;;;;;;6343308;22;20010;-93
2023/03/20 15:48:07;;;;;;;14.65;8.20;;;;;;;;;;6341053;22;20041;-92
2023/03/20 15:50:35;;;;;;;14.95;5.53;;;;;;;;;;6340729;22;20010;-93
2023/03/20 15:53:02;;;;;;;15.88;8.52;;;;;;;;;;6343029;22;20013;-92
2023/03/20 15:55:29;;;;;;;13.75;7.50;;;;;;;;;;6342350;22;20018;-93